sensor_id;sensor_type;location;lat;lon;timestamp;pressure;altitude;pressure_sealevel;temperature;humidity
49949;BME280;35840;45.982;8.890;2023-08-21T00:01:48;98945.06;;;27.13;69.51
49949;BME280;35840;45.982;8.890;2023-08-21T00:04:15;98944.69;;;27.16;69.83
49949;BME280;35840;45.982;8.890;2023-08-21T00:06:42;98945.16;;;27.05;70.05
49949;BME280;35840;45.982;8.890;2023-08-21T00:09:09;98947.47;;;27.08;70.34
49949;BME280;35840;45.982;8.890;2023-08-21T00:11:35;98942.19;;;27.08;70.21
49949;BME280;35840;45.982;8.890;2023-08-21T00:14:02;98940.06;;;27.03;69.89
49949;BME280;35840;45.982;8.890;2023-08-21T00:16:29;98931.91;;;26.98;69.81
49949;BME280;35840;45.982;8.890;2023-08-21T00:18:56;98941.28;;;27.01;69.80
49949;BME280;35840;45.982;8.890;2023-08-21T00:21:23;98936.34;;;26.97;69.95
49949;BME280;35840;45.982;8.890;2023-08-21T00:23:50;98930.84;;;26.77;70.75
49949;BME280;35840;45.982;8.890;2023-08-21T00:26:17;98927.63;;;26.52;72.00
49949;BME280;35840;45.982;8.890;2023-08-21T00:28:44;98946.91;;;26.38;72.45
49949;BME280;35840;45.982;8.890;2023-08-21T00:31:11;98942.53;;;26.45;71.44
49949;BME280;35840;45.982;8.890;2023-08-21T00:33:37;98939.75;;;26.61;70.51
49949;BME280;35840;45.982;8.890;2023-08-21T00:36:04;98944.28;;;26.68;70.56
49949;BME280;35840;45.982;8.890;2023-08-21T00:38:31;98941.94;;;26.73;70.79
49949;BME280;35840;45.982;8.890;2023-08-21T00:40:58;98941.56;;;26.76;70.61
49949;BME280;35840;45.982;8.890;2023-08-21T00:43:25;98954.84;;;26.83;70.02
49949;BME280;35840;45.982;8.890;2023-08-21T00:45:52;98942.47;;;26.83;69.68
49949;BME280;35840;45.982;8.890;2023-08-21T00:48:19;98945.47;;;26.80;69.81
49949;BME280;35840;45.982;8.890;2023-08-21T00:50:46;98942.00;;;26.64;69.88
49949;BME280;35840;45.982;8.890;2023-08-21T00:53:13;98945.28;;;26.67;69.25
49949;BME280;35840;45.982;8.890;2023-08-21T00:55:41;98941.00;;;26.66;69.64
49949;BME280;35840;45.982;8.890;2023-08-21T00:58:10;98926.44;;;26.55;70.08
49949;BME280;35840;45.982;8.890;2023-08-21T01:00:45;98935.72;;;26.36;70.72
49949;BME280;35840;45.982;8.890;2023-08-21T01:03:14;98939.00;;;26.38;70.52
49949;BME280;35840;45.982;8.890;2023-08-21T01:05:41;98939.47;;;26.41;70.35
49949;BME280;35840;45.982;8.890;2023-08-21T01:08:11;98941.38;;;26.48;70.00
49949;BME280;35840;45.982;8.890;2023-08-21T01:16:20;98937.47;;;26.58;69.59
49949;BME280;35840;45.982;8.890;2023-08-21T01:18:48;98944.91;;;26.55;69.80
49949;BME280;35840;45.982;8.890;2023-08-21T01:21:16;98943.13;;;26.55;69.74
49949;BME280;35840;45.982;8.890;2023-08-21T01:23:43;98941.53;;;26.46;69.06
49949;BME280;35840;45.982;8.890;2023-08-21T01:26:10;98943.47;;;26.37;68.33
49949;BME280;35840;45.982;8.890;2023-08-21T01:28:36;98953.59;;;26.10;69.08
49949;BME280;35840;45.982;8.890;2023-08-21T01:33:45;98950.47;;;26.07;69.16
49949;BME280;35840;45.982;8.890;2023-08-21T01:36:14;98942.25;;;26.10;69.26
49949;BME280;35840;45.982;8.890;2023-08-21T01:38:41;98936.78;;;26.11;69.26
49949;BME280;35840;45.982;8.890;2023-08-21T01:41:11;98939.50;;;26.18;69.19
49949;BME280;35840;45.982;8.890;2023-08-21T01:43:38;98938.34;;;26.21;68.41
49949;BME280;35840;45.982;8.890;2023-08-21T01:46:05;98919.69;;;26.07;68.76
49949;BME280;35840;45.982;8.890;2023-08-21T01:48:33;98935.78;;;26.12;68.87
49949;BME280;35840;45.982;8.890;2023-08-21T01:51:03;98940.53;;;26.17;68.81
49949;BME280;35840;45.982;8.890;2023-08-21T01:53:29;98937.53;;;26.20;69.01
49949;BME280;35840;45.982;8.890;2023-08-21T01:55:56;98940.78;;;26.22;68.76
49949;BME280;35840;45.982;8.890;2023-08-21T01:58:23;98932.88;;;26.22;68.69
49949;BME280;35840;45.982;8.890;2023-08-21T02:00:50;98932.44;;;26.19;68.85
49949;BME280;35840;45.982;8.890;2023-08-21T02:03:17;98936.72;;;26.20;68.59
49949;BME280;35840;45.982;8.890;2023-08-21T02:05:44;98938.88;;;26.16;69.27
49949;BME280;35840;45.982;8.890;2023-08-21T02:08:14;98940.91;;;26.14;69.29
49949;BME280;35840;45.982;8.890;2023-08-21T02:10:51;98937.41;;;26.14;69.43
49949;BME280;35840;45.982;8.890;2023-08-21T02:13:18;98929.75;;;26.04;69.66
49949;BME280;35840;45.982;8.890;2023-08-21T02:15:46;98919.59;;;26.01;69.80
49949;BME280;35840;45.982;8.890;2023-08-21T02:18:12;98938.41;;;26.12;69.87
49949;BME280;35840;45.982;8.890;2023-08-21T02:20:40;98946.78;;;26.16;69.36
49949;BME280;35840;45.982;8.890;2023-08-21T02:23:08;98947.34;;;26.11;69.67
49949;BME280;35840;45.982;8.890;2023-08-21T02:25:35;98948.50;;;26.09;70.11
49949;BME280;35840;45.982;8.890;2023-08-21T02:28:02;98954.41;;;26.11;69.60
49949;BME280;35840;45.982;8.890;2023-08-21T02:30:31;98952.78;;;26.10;69.10
49949;BME280;35840;45.982;8.890;2023-08-21T02:32:58;98950.66;;;26.05;69.07
49949;BME280;35840;45.982;8.890;2023-08-21T02:35:25;98946.31;;;25.89;69.65
49949;BME280;35840;45.982;8.890;2023-08-21T02:37:51;98945.69;;;25.87;69.91
49949;BME280;35840;45.982;8.890;2023-08-21T02:40:18;98949.25;;;25.94;69.76
49949;BME280;35840;45.982;8.890;2023-08-21T02:42:45;98943.81;;;25.96;69.82
49949;BME280;35840;45.982;8.890;2023-08-21T02:45:12;98948.97;;;25.89;69.26
49949;BME280;35840;45.982;8.890;2023-08-21T02:47:39;98946.69;;;25.86;68.88
49949;BME280;35840;45.982;8.890;2023-08-21T02:50:07;98946.03;;;25.84;69.49
49949;BME280;35840;45.982;8.890;2023-08-21T02:52:35;98941.97;;;25.82;69.81
49949;BME280;35840;45.982;8.890;2023-08-21T02:55:03;98942.13;;;25.80;69.86
49949;BME280;35840;45.982;8.890;2023-08-21T02:57:31;98947.53;;;25.64;69.92
49949;BME280;35840;45.982;8.890;2023-08-21T02:59:57;98950.28;;;25.70;69.68
49949;BME280;35840;45.982;8.890;2023-08-21T03:02:24;98932.81;;;25.69;69.70
49949;BME280;35840;45.982;8.890;2023-08-21T03:04:51;98939.38;;;25.73;69.81
49949;BME280;35840;45.982;8.890;2023-08-21T03:07:18;98938.50;;;25.81;69.99
49949;BME280;35840;45.982;8.890;2023-08-21T03:09:46;98945.75;;;25.79;70.31
49949;BME280;35840;45.982;8.890;2023-08-21T03:12:14;98947.41;;;25.80;70.20
49949;BME280;35840;45.982;8.890;2023-08-21T03:14:40;98937.38;;;25.75;70.25
49949;BME280;35840;45.982;8.890;2023-08-21T03:17:09;98943.31;;;25.77;69.73
49949;BME280;35840;45.982;8.890;2023-08-21T03:19:36;98937.03;;;25.78;69.64
49949;BME280;35840;45.982;8.890;2023-08-21T03:22:02;98936.38;;;25.76;70.23
49949;BME280;35840;45.982;8.890;2023-08-21T03:24:30;98936.22;;;25.78;70.57
49949;BME280;35840;45.982;8.890;2023-08-21T03:26:57;98935.22;;;25.79;70.56
49949;BME280;35840;45.982;8.890;2023-08-21T03:29:24;98925.69;;;25.78;70.51
49949;BME280;35840;45.982;8.890;2023-08-21T03:31:52;98930.41;;;25.83;70.57
49949;BME280;35840;45.982;8.890;2023-08-21T03:34:20;98930.13;;;25.77;70.60
49949;BME280;35840;45.982;8.890;2023-08-21T03:36:49;98934.91;;;25.74;70.54
49949;BME280;35840;45.982;8.890;2023-08-21T03:39:17;98933.63;;;25.70;70.53
49949;BME280;35840;45.982;8.890;2023-08-21T03:41:46;98936.69;;;25.58;70.67
49949;BME280;35840;45.982;8.890;2023-08-21T03:44:14;98936.22;;;25.55;71.00
49949;BME280;35840;45.982;8.890;2023-08-21T03:46:40;98940.25;;;25.11;72.90
49949;BME280;35840;45.982;8.890;2023-08-21T03:49:08;98938.03;;;24.91;73.54
49949;BME280;35840;45.982;8.890;2023-08-21T03:51:35;98938.91;;;25.15;72.72
49949;BME280;35840;45.982;8.890;2023-08-21T03:54:02;98941.44;;;25.32;72.58
49949;BME280;35840;45.982;8.890;2023-08-21T03:56:29;98948.50;;;25.39;72.34
49949;BME280;35840;45.982;8.890;2023-08-21T03:58:56;98947.34;;;25.42;72.36
49949;BME280;35840;45.982;8.890;2023-08-21T04:01:23;98949.91;;;25.50;71.99
49949;BME280;35840;45.982;8.890;2023-08-21T04:03:51;98953.19;;;25.52;71.92
49949;BME280;35840;45.982;8.890;2023-08-21T04:06:18;98951.84;;;25.56;71.63
49949;BME280;35840;45.982;8.890;2023-08-21T04:08:44;98956.75;;;25.59;71.37
49949;BME280;35840;45.982;8.890;2023-08-21T04:11:11;98951.66;;;25.35;71.45
49949;BME280;35840;45.982;8.890;2023-08-21T04:13:38;98954.72;;;25.07;71.88
49949;BME280;35840;45.982;8.890;2023-08-21T04:16:05;98957.50;;;25.14;72.43
49949;BME280;35840;45.982;8.890;2023-08-21T04:18:32;98960.78;;;25.07;72.21
49949;BME280;35840;45.982;8.890;2023-08-21T04:21:07;98948.41;;;25.16;71.99
49949;BME280;35840;45.982;8.890;2023-08-21T04:23:35;98959.22;;;25.30;71.90
49949;BME280;35840;45.982;8.890;2023-08-21T04:26:03;98952.94;;;25.39;71.72
49949;BME280;35840;45.982;8.890;2023-08-21T04:28:31;98954.88;;;25.45;71.48
49949;BME280;35840;45.982;8.890;2023-08-21T04:30:59;98953.91;;;25.46;71.61
49949;BME280;35840;45.982;8.890;2023-08-21T04:33:28;98956.34;;;25.48;71.59
49949;BME280;35840;45.982;8.890;2023-08-21T04:35:55;98953.38;;;25.51;71.61
49949;BME280;35840;45.982;8.890;2023-08-21T04:38:22;98954.72;;;25.47;72.02
49949;BME280;35840;45.982;8.890;2023-08-21T04:40:49;98953.72;;;25.48;71.78
49949;BME280;35840;45.982;8.890;2023-08-21T04:43:16;98955.50;;;25.47;71.92
49949;BME280;35840;45.982;8.890;2023-08-21T04:45:51;98959.44;;;25.51;72.26
49949;BME280;35840;45.982;8.890;2023-08-21T04:48:22;98956.63;;;25.53;72.46
49949;BME280;35840;45.982;8.890;2023-08-21T04:50:49;98963.38;;;25.55;72.52
49949;BME280;35840;45.982;8.890;2023-08-21T04:53:16;98968.94;;;25.60;72.66
49949;BME280;35840;45.982;8.890;2023-08-21T04:55:43;98956.94;;;25.58;72.56
49949;BME280;35840;45.982;8.890;2023-08-21T04:58:10;98962.03;;;25.59;72.59
49949;BME280;35840;45.982;8.890;2023-08-21T05:00:37;98954.94;;;25.60;72.79
49949;BME280;35840;45.982;8.890;2023-08-21T05:03:06;98954.44;;;25.65;72.83
49949;BME280;35840;45.982;8.890;2023-08-21T05:05:36;98962.16;;;25.66;72.86
49949;BME280;35840;45.982;8.890;2023-08-21T05:08:03;98978.88;;;25.73;72.91
49949;BME280;35840;45.982;8.890;2023-08-21T05:10:30;98978.06;;;25.73;73.44
49949;BME280;35840;45.982;8.890;2023-08-21T05:12:58;98967.41;;;25.66;73.47
49949;BME280;35840;45.982;8.890;2023-08-21T05:15:25;98980.88;;;25.71;73.68
49949;BME280;35840;45.982;8.890;2023-08-21T05:17:51;98978.06;;;25.73;74.17
49949;BME280;35840;45.982;8.890;2023-08-21T05:20:20;98984.34;;;25.72;74.13
49949;BME280;35840;45.982;8.890;2023-08-21T05:22:47;98986.13;;;25.71;74.34
49949;BME280;35840;45.982;8.890;2023-08-21T05:25:14;98982.34;;;25.74;74.86
49949;BME280;35840;45.982;8.890;2023-08-21T05:27:41;98987.72;;;25.81;75.41
49949;BME280;35840;45.982;8.890;2023-08-21T05:30:09;98987.06;;;25.78;74.50
49949;BME280;35840;45.982;8.890;2023-08-21T05:32:37;98991.16;;;25.81;74.24
49949;BME280;35840;45.982;8.890;2023-08-21T05:35:04;98994.81;;;25.80;74.27
49949;BME280;35840;45.982;8.890;2023-08-21T05:37:31;98993.53;;;25.76;74.47
49949;BME280;35840;45.982;8.890;2023-08-21T05:39:59;98989.81;;;25.85;73.95
49949;BME280;35840;45.982;8.890;2023-08-21T05:42:26;98993.94;;;25.88;73.88
49949;BME280;35840;45.982;8.890;2023-08-21T05:44:53;98996.88;;;25.93;74.53
49949;BME280;35840;45.982;8.890;2023-08-21T05:47:21;98996.16;;;25.99;74.63
49949;BME280;35840;45.982;8.890;2023-08-21T05:49:50;98987.44;;;25.99;75.80
49949;BME280;35840;45.982;8.890;2023-08-21T05:52:17;98987.25;;;26.00;76.06
49949;BME280;35840;45.982;8.890;2023-08-21T05:54:45;98979.84;;;25.95;77.66
49949;BME280;35840;45.982;8.890;2023-08-21T05:57:12;99000.59;;;25.99;77.77
49949;BME280;35840;45.982;8.890;2023-08-21T05:59:43;98987.13;;;25.93;76.87
49949;BME280;35840;45.982;8.890;2023-08-21T06:02:12;98993.03;;;25.95;75.57
49949;BME280;35840;45.982;8.890;2023-08-21T06:04:40;98996.16;;;25.99;74.66
49949;BME280;35840;45.982;8.890;2023-08-21T06:07:08;98995.53;;;25.97;74.74
49949;BME280;35840;45.982;8.890;2023-08-21T06:09:35;98991.88;;;25.98;74.41
49949;BME280;35840;45.982;8.890;2023-08-21T06:12:06;98995.00;;;26.02;74.68
49949;BME280;35840;45.982;8.890;2023-08-21T06:14:34;98995.47;;;26.05;74.79
49949;BME280;35840;45.982;8.890;2023-08-21T06:17:03;98987.84;;;26.10;74.65
49949;BME280;35840;45.982;8.890;2023-08-21T06:19:31;98989.94;;;26.15;74.69
49949;BME280;35840;45.982;8.890;2023-08-21T06:21:58;98993.25;;;26.17;75.26
49949;BME280;35840;45.982;8.890;2023-08-21T06:24:25;98994.84;;;26.18;74.97
49949;BME280;35840;45.982;8.890;2023-08-21T06:26:57;98986.63;;;26.21;74.95
49949;BME280;35840;45.982;8.890;2023-08-21T06:29:24;98987.78;;;26.19;75.04
49949;BME280;35840;45.982;8.890;2023-08-21T06:31:51;98987.44;;;26.22;74.74
49949;BME280;35840;45.982;8.890;2023-08-21T06:34:19;98990.06;;;26.22;74.49
49949;BME280;35840;45.982;8.890;2023-08-21T06:36:46;98982.97;;;26.22;73.94
49949;BME280;35840;45.982;8.890;2023-08-21T06:39:13;98988.06;;;26.24;74.13
49949;BME280;35840;45.982;8.890;2023-08-21T06:41:39;98986.25;;;26.24;73.66
49949;BME280;35840;45.982;8.890;2023-08-21T06:44:06;98995.81;;;26.25;74.11
49949;BME280;35840;45.982;8.890;2023-08-21T06:46:34;98985.25;;;26.25;74.05
49949;BME280;35840;45.982;8.890;2023-08-21T06:49:03;98988.34;;;26.29;74.19
49949;BME280;35840;45.982;8.890;2023-08-21T06:51:30;98982.91;;;26.31;73.69
49949;BME280;35840;45.982;8.890;2023-08-21T06:53:56;98985.16;;;26.34;74.00
49949;BME280;35840;45.982;8.890;2023-08-21T06:56:23;98990.56;;;26.40;74.73
49949;BME280;35840;45.982;8.890;2023-08-21T06:58:50;98991.78;;;26.29;75.93
49949;BME280;35840;45.982;8.890;2023-08-21T07:01:17;98973.16;;;26.16;75.42
49949;BME280;35840;45.982;8.890;2023-08-21T07:03:44;98987.81;;;26.34;75.53
49949;BME280;35840;45.982;8.890;2023-08-21T07:06:10;98976.75;;;26.38;75.31
49949;BME280;35840;45.982;8.890;2023-08-21T07:08:37;98981.72;;;26.48;75.11
49949;BME280;35840;45.982;8.890;2023-08-21T07:11:07;98985.31;;;26.55;75.06
49949;BME280;35840;45.982;8.890;2023-08-21T07:13:36;98983.59;;;26.62;74.63
49949;BME280;35840;45.982;8.890;2023-08-21T07:16:03;98979.88;;;26.72;72.89
49949;BME280;35840;45.982;8.890;2023-08-21T07:18:33;98981.16;;;26.76;72.81
49949;BME280;35840;45.982;8.890;2023-08-21T07:21:00;98988.66;;;26.64;72.66
49949;BME280;35840;45.982;8.890;2023-08-21T07:23:27;98977.47;;;26.62;71.82
49949;BME280;35840;45.982;8.890;2023-08-21T07:25:54;98981.56;;;26.64;75.90
49949;BME280;35840;45.982;8.890;2023-08-21T07:28:21;98986.69;;;26.81;76.11
49949;BME280;35840;45.982;8.890;2023-08-21T07:30:47;98978.69;;;26.89;75.72
49949;BME280;35840;45.982;8.890;2023-08-21T07:33:14;98984.50;;;27.00;74.71
49949;BME280;35840;45.982;8.890;2023-08-21T07:35:41;98982.31;;;27.03;74.08
49949;BME280;35840;45.982;8.890;2023-08-21T07:38:08;98976.22;;;27.03;73.20
49949;BME280;35840;45.982;8.890;2023-08-21T07:40:35;98989.22;;;27.04;72.58
49949;BME280;35840;45.982;8.890;2023-08-21T07:43:01;98986.41;;;27.06;72.40
49949;BME280;35840;45.982;8.890;2023-08-21T07:45:28;98982.50;;;27.02;71.67
49949;BME280;35840;45.982;8.890;2023-08-21T07:47:55;98988.31;;;26.97;71.47
49949;BME280;35840;45.982;8.890;2023-08-21T07:50:39;98983.66;;;26.99;70.88
49949;BME280;35840;45.982;8.890;2023-08-21T07:53:06;98982.94;;;27.05;70.97
49949;BME280;35840;45.982;8.890;2023-08-21T07:55:33;98976.94;;;27.11;71.55
49949;BME280;35840;45.982;8.890;2023-08-21T07:58:00;98978.19;;;27.15;71.34
49949;BME280;35840;45.982;8.890;2023-08-21T08:00:26;98978.66;;;27.19;69.96
49949;BME280;35840;45.982;8.890;2023-08-21T08:02:53;98973.19;;;27.21;69.11
49949;BME280;35840;45.982;8.890;2023-08-21T08:05:20;98977.72;;;27.27;68.44
49949;BME280;35840;45.982;8.890;2023-08-21T08:07:47;98975.00;;;27.35;69.45
49949;BME280;35840;45.982;8.890;2023-08-21T08:10:14;98970.34;;;27.37;68.69
49949;BME280;35840;45.982;8.890;2023-08-21T08:12:42;98967.59;;;27.45;69.75
49949;BME280;35840;45.982;8.890;2023-08-21T08:15:10;98969.66;;;27.50;69.21
49949;BME280;35840;45.982;8.890;2023-08-21T08:17:37;98962.66;;;27.57;70.36
49949;BME280;35840;45.982;8.890;2023-08-21T08:20:04;98955.53;;;27.58;70.30
49949;BME280;35840;45.982;8.890;2023-08-21T08:22:32;98961.25;;;27.61;68.28
49949;BME280;35840;45.982;8.890;2023-08-21T08:24:59;98962.81;;;27.56;67.17
49949;BME280;35840;45.982;8.890;2023-08-21T08:27:26;98959.81;;;27.59;67.14
49949;BME280;35840;45.982;8.890;2023-08-21T08:29:53;98965.16;;;27.65;66.94
49949;BME280;35840;45.982;8.890;2023-08-21T08:32:20;98966.22;;;27.71;67.43
49949;BME280;35840;45.982;8.890;2023-08-21T08:34:46;98964.63;;;27.77;67.80
49949;BME280;35840;45.982;8.890;2023-08-21T08:37:13;98962.25;;;27.82;67.34
49949;BME280;35840;45.982;8.890;2023-08-21T08:39:40;98964.81;;;27.97;66.96
49949;BME280;35840;45.982;8.890;2023-08-21T08:42:07;98953.22;;;27.98;65.95
49949;BME280;35840;45.982;8.890;2023-08-21T08:44:35;98949.44;;;28.00;65.33
49949;BME280;35840;45.982;8.890;2023-08-21T08:47:05;98945.00;;;28.08;65.59
49949;BME280;35840;45.982;8.890;2023-08-21T08:49:32;98950.56;;;28.13;66.00
49949;BME280;35840;45.982;8.890;2023-08-21T08:51:59;98945.19;;;28.06;64.47
49949;BME280;35840;45.982;8.890;2023-08-21T08:54:27;98945.59;;;28.03;64.33
49949;BME280;35840;45.982;8.890;2023-08-21T08:56:54;98942.75;;;28.05;64.30
49949;BME280;35840;45.982;8.890;2023-08-21T08:59:20;98937.94;;;28.15;65.83
49949;BME280;35840;45.982;8.890;2023-08-21T09:01:47;98928.63;;;28.19;65.62
49949;BME280;35840;45.982;8.890;2023-08-21T09:04:14;98935.81;;;28.32;64.98
49949;BME280;35840;45.982;8.890;2023-08-21T09:06:41;98936.88;;;28.38;64.82
49949;BME280;35840;45.982;8.890;2023-08-21T09:09:08;98931.16;;;28.34;62.87
49949;BME280;35840;45.982;8.890;2023-08-21T09:11:42;98923.38;;;28.26;63.05
49949;BME280;35840;45.982;8.890;2023-08-21T09:14:10;98927.28;;;28.30;64.16
49949;BME280;35840;45.982;8.890;2023-08-21T09:16:37;98932.84;;;28.42;64.79
49949;BME280;35840;45.982;8.890;2023-08-21T09:19:04;98931.88;;;28.49;63.37
49949;BME280;35840;45.982;8.890;2023-08-21T09:21:32;98921.91;;;28.51;63.04
49949;BME280;35840;45.982;8.890;2023-08-21T09:24:01;98929.69;;;28.60;62.95
49949;BME280;35840;45.982;8.890;2023-08-21T09:26:32;98922.47;;;28.75;63.98
49949;BME280;35840;45.982;8.890;2023-08-21T09:29:00;98919.66;;;28.83;63.13
49949;BME280;35840;45.982;8.890;2023-08-21T09:31:32;98914.38;;;28.90;61.90
49949;BME280;35840;45.982;8.890;2023-08-21T09:34:01;98915.81;;;28.93;62.64
49949;BME280;35840;45.982;8.890;2023-08-21T09:36:35;98898.03;;;28.80;61.21
49949;BME280;35840;45.982;8.890;2023-08-21T09:39:03;98909.66;;;28.85;61.58
49949;BME280;35840;45.982;8.890;2023-08-21T09:41:32;98902.75;;;28.91;60.63
49949;BME280;35840;45.982;8.890;2023-08-21T09:43:59;98901.78;;;29.06;62.96
49949;BME280;35840;45.982;8.890;2023-08-21T09:46:27;98906.69;;;29.09;62.08
49949;BME280;35840;45.982;8.890;2023-08-21T09:48:55;98880.81;;;29.04;60.68
49949;BME280;35840;45.982;8.890;2023-08-21T09:51:22;98884.50;;;29.16;60.89
49949;BME280;35840;45.982;8.890;2023-08-21T09:53:49;98885.16;;;29.25;61.97
49949;BME280;35840;45.982;8.890;2023-08-21T09:56:19;98887.84;;;29.32;61.56
49949;BME280;35840;45.982;8.890;2023-08-21T09:58:50;98879.47;;;29.35;60.01
49949;BME280;35840;45.982;8.890;2023-08-21T10:01:20;98885.81;;;29.41;62.30
49949;BME280;35840;45.982;8.890;2023-08-21T10:03:48;98881.09;;;29.43;63.43
49949;BME280;35840;45.982;8.890;2023-08-21T10:06:17;98868.28;;;29.53;64.91
49949;BME280;35840;45.982;8.890;2023-08-21T10:08:53;98871.97;;;29.59;63.77
49949;BME280;35840;45.982;8.890;2023-08-21T10:11:20;98863.59;;;29.55;61.26
49949;BME280;35840;45.982;8.890;2023-08-21T10:13:48;98867.66;;;29.51;60.58
49949;BME280;35840;45.982;8.890;2023-08-21T10:16:19;98871.31;;;29.50;59.49
49949;BME280;35840;45.982;8.890;2023-08-21T10:18:48;98858.28;;;29.48;57.86
49949;BME280;35840;45.982;8.890;2023-08-21T10:21:18;98859.50;;;29.52;59.28
49949;BME280;35840;45.982;8.890;2023-08-21T10:23:50;98858.88;;;29.57;61.64
49949;BME280;35840;45.982;8.890;2023-08-21T10:26:22;98869.31;;;29.59;59.86
49949;BME280;35840;45.982;8.890;2023-08-21T10:28:53;98861.16;;;29.60;59.78
49949;BME280;35840;45.982;8.890;2023-08-21T10:34:05;98853.00;;;29.62;59.36
49949;BME280;35840;45.982;8.890;2023-08-21T10:39:25;98852.56;;;29.78;59.08
49949;BME280;35840;45.982;8.890;2023-08-21T10:42:09;98846.88;;;29.88;59.13
49949;BME280;35840;45.982;8.890;2023-08-21T10:44:46;98845.66;;;29.91;58.40
49949;BME280;35840;45.982;8.890;2023-08-21T10:47:31;98848.31;;;29.91;58.30
49949;BME280;35840;45.982;8.890;2023-08-21T10:50:06;98840.78;;;29.94;60.22
49949;BME280;35840;45.982;8.890;2023-08-21T10:52:38;98844.81;;;30.03;58.38
49949;BME280;35840;45.982;8.890;2023-08-21T10:55:10;98839.94;;;30.07;58.09
49949;BME280;35840;45.982;8.890;2023-08-21T10:57:38;98833.56;;;30.08;57.40
49949;BME280;35840;45.982;8.890;2023-08-21T11:02:39;98830.25;;;30.26;56.41
49949;BME280;35840;45.982;8.890;2023-08-21T11:05:08;98829.19;;;30.40;55.51
49949;BME280;35840;45.982;8.890;2023-08-21T11:07:43;98825.97;;;30.45;55.42
49949;BME280;35840;45.982;8.890;2023-08-21T11:10:18;98832.88;;;30.46;55.68
49949;BME280;35840;45.982;8.890;2023-08-21T11:12:55;98834.28;;;30.42;55.25
49949;BME280;35840;45.982;8.890;2023-08-21T11:15:24;98826.97;;;30.51;56.23
49949;BME280;35840;45.982;8.890;2023-08-21T11:17:54;98825.31;;;30.50;55.60
49949;BME280;35840;45.982;8.890;2023-08-21T11:20:21;98828.56;;;30.52;55.99
49949;BME280;35840;45.982;8.890;2023-08-21T11:22:47;98821.34;;;30.66;58.22
49949;BME280;35840;45.982;8.890;2023-08-21T11:25:15;98821.75;;;30.69;57.16
49949;BME280;35840;45.982;8.890;2023-08-21T11:27:42;98819.72;;;30.65;55.36
49949;BME280;35840;45.982;8.890;2023-08-21T11:30:11;98806.22;;;30.66;56.24
49949;BME280;35840;45.982;8.890;2023-08-21T11:32:38;98812.94;;;30.76;58.11
49949;BME280;35840;45.982;8.890;2023-08-21T11:35:07;98810.69;;;30.79;56.82
49949;BME280;35840;45.982;8.890;2023-08-21T11:37:43;98809.25;;;30.77;56.30
49949;BME280;35840;45.982;8.890;2023-08-21T11:40:12;98810.84;;;30.84;57.80
49949;BME280;35840;45.982;8.890;2023-08-21T11:42:39;98813.91;;;30.88;56.80
49949;BME280;35840;45.982;8.890;2023-08-21T11:45:06;98805.75;;;30.83;54.94
49949;BME280;35840;45.982;8.890;2023-08-21T11:47:36;98802.91;;;30.78;54.31
49949;BME280;35840;45.982;8.890;2023-08-21T11:50:04;98796.97;;;30.82;54.81
49949;BME280;35840;45.982;8.890;2023-08-21T11:52:32;98803.81;;;30.97;54.30
49949;BME280;35840;45.982;8.890;2023-08-21T11:54:59;98791.53;;;31.09;53.77
49949;BME280;35840;45.982;8.890;2023-08-21T11:57:26;98790.25;;;31.12;53.18
49949;BME280;35840;45.982;8.890;2023-08-21T11:59:56;98778.50;;;31.01;53.95
49949;BME280;35840;45.982;8.890;2023-08-21T12:02:32;98788.03;;;31.08;52.67
49949;BME280;35840;45.982;8.890;2023-08-21T12:05:04;98781.69;;;31.10;54.33
49949;BME280;35840;45.982;8.890;2023-08-21T12:07:32;98779.84;;;31.10;53.07
49949;BME280;35840;45.982;8.890;2023-08-21T12:10:00;98789.19;;;31.19;54.55
49949;BME280;35840;45.982;8.890;2023-08-21T12:12:27;98778.13;;;31.22;53.77
49949;BME280;35840;45.982;8.890;2023-08-21T12:14:54;98775.84;;;31.26;51.91
49949;BME280;35840;45.982;8.890;2023-08-21T12:17:21;98778.28;;;31.28;52.03
49949;BME280;35840;45.982;8.890;2023-08-21T12:19:48;98771.94;;;31.29;50.25
49949;BME280;35840;45.982;8.890;2023-08-21T12:22:15;98772.38;;;31.25;51.26
49949;BME280;35840;45.982;8.890;2023-08-21T12:24:41;98771.34;;;31.27;51.53
49949;BME280;35840;45.982;8.890;2023-08-21T12:27:08;98775.16;;;31.37;50.93
49949;BME280;35840;45.982;8.890;2023-08-21T12:29:35;98767.94;;;31.45;50.55
49949;BME280;35840;45.982;8.890;2023-08-21T12:32:02;98766.88;;;31.46;52.34
49949;BME280;35840;45.982;8.890;2023-08-21T12:34:29;98764.66;;;31.42;50.84
49949;BME280;35840;45.982;8.890;2023-08-21T12:36:56;98765.31;;;31.38;50.50
49949;BME280;35840;45.982;8.890;2023-08-21T12:39:23;98763.25;;;31.40;49.37
49949;BME280;35840;45.982;8.890;2023-08-21T12:41:50;98761.03;;;31.37;49.28
49949;BME280;35840;45.982;8.890;2023-08-21T12:44:17;98754.47;;;31.39;49.90
49949;BME280;35840;45.982;8.890;2023-08-21T12:46:44;98754.03;;;31.42;50.62
49949;BME280;35840;45.982;8.890;2023-08-21T12:49:11;98753.75;;;31.51;49.38
49949;BME280;35840;45.982;8.890;2023-08-21T12:51:39;98757.78;;;31.60;48.53
49949;BME280;35840;45.982;8.890;2023-08-21T12:54:06;98754.47;;;31.65;48.73
49949;BME280;35840;45.982;8.890;2023-08-21T12:56:33;98754.19;;;31.73;48.69
49949;BME280;35840;45.982;8.890;2023-08-21T12:59:00;98753.34;;;31.72;49.45
49949;BME280;35840;45.982;8.890;2023-08-21T13:01:27;98752.31;;;31.73;50.66
49949;BME280;35840;45.982;8.890;2023-08-21T13:03:54;98747.47;;;31.70;49.17
49949;BME280;35840;45.982;8.890;2023-08-21T13:06:20;98744.63;;;31.65;50.29
49949;BME280;35840;45.982;8.890;2023-08-21T13:08:47;98746.03;;;31.68;49.56
49949;BME280;35840;45.982;8.890;2023-08-21T13:11:15;98747.91;;;31.67;50.00
49949;BME280;35840;45.982;8.890;2023-08-21T13:13:41;98743.16;;;31.69;49.91
49949;BME280;35840;45.982;8.890;2023-08-21T13:16:08;98743.22;;;31.81;49.30
49949;BME280;35840;45.982;8.890;2023-08-21T13:18:35;98732.41;;;31.83;49.76
49949;BME280;35840;45.982;8.890;2023-08-21T13:21:02;98731.78;;;31.81;49.60